Time;durP1;ratioP1;P1;durP2;ratioP2;P2;SDS_P1;SDS_P2;PMS_P1;PMS_P2;Temp;Humidity;BMP_temperature;BMP_pressure;BME280_temperature;BME280_humidity;BME280_pressure;Samples;Min_cycle;Max_cycle;Signal;HPM_P1;HPM_P2
2022/04/26 03:36:42;;;;;;;18.52;4.97;;;6.90;83.20;;;;;;5050341;28;20057;-64
2022/04/26 03:39:08;;;;;;;13.95;4.60;;;6.90;83.20;;;;;;5050774;28;20757;-64
2022/04/26 03:41:34;;;;;;;10.77;4.35;;;6.90;83.20;;;;;;5050613;28;20079;-64
2022/04/26 03:44:00;;;;;;;16.80;5.70;;;6.90;83.20;;;;;;5050018;28;20652;-65
2022/04/26 03:46:26;;;;;;;13.63;4.40;;;6.90;83.10;;;;;;5048688;28;20061;-65
2022/04/26 03:48:52;;;;;;;11.43;4.47;;;6.90;83.10;;;;;;5048444;28;20139;-65
2022/04/26 03:51:17;;;;;;;16.30;5.85;;;6.90;83.20;;;;;;5049829;28;20211;-64
2022/04/26 03:53:43;;;;;;;15.40;4.32;;;6.90;83.20;;;;;;5049865;28;20108;-64
2022/04/26 03:56:09;;;;;;;14.25;5.43;;;6.90;83.20;;;;;;5050024;28;20390;-64
2022/04/26 03:58:34;;;;;;;14.93;4.55;;;6.90;83.10;;;;;;5049823;28;20041;-64
2022/04/26 04:01:00;;;;;;;10.52;4.07;;;6.90;83.10;;;;;;5050040;28;20080;-64
2022/04/26 04:03:26;;;;;;;14.05;4.28;;;6.90;83.20;;;;;;5050127;28;20033;-64
2022/04/26 04:05:52;;;;;;;11.73;5.88;;;6.90;83.20;;;;;;5050383;28;20052;-64
2022/04/26 04:08:18;;;;;;;14.10;4.03;;;6.90;83.30;;;;;;5050033;28;20059;-64
2022/04/26 04:10:44;;;;;;;16.55;4.53;;;6.90;83.20;;;;;;5048605;28;20049;-64
2022/04/26 04:13:10;;;;;;;15.63;4.50;;;6.90;83.20;;;;;;5049675;28;20049;-64
2022/04/26 04:15:36;;;;;;;10.70;4.30;;;6.90;83.20;;;;;;5049794;28;20055;-64
2022/04/26 04:18:02;;;;;;;12.18;4.38;;;6.90;83.20;;;;;;5049694;28;20468;-64
2022/04/26 04:20:29;;;;;;;18.17;4.40;;;6.90;83.20;;;;;;5048903;28;20053;-63
2022/04/26 04:22:55;;;;;;;10.88;4.28;;;6.90;83.30;;;;;;5049388;28;20044;-63
2022/04/26 04:25:21;;;;;;;16.85;4.68;;;6.90;83.20;;;;;;5048652;28;20116;-63
2022/04/26 04:27:47;;;;;;;11.35;4.47;;;6.90;83.10;;;;;;5049369;28;20470;-64
2022/04/26 04:30:13;;;;;;;14.10;5.10;;;6.90;83.20;;;;;;5048905;28;20155;-64
2022/04/26 04:32:39;;;;;;;13.73;4.65;;;6.90;83.10;;;;;;5048214;28;20041;-64
2022/04/26 04:35:06;;;;;;;15.77;4.60;;;6.90;83.20;;;;;;5048942;28;20111;-64
2022/04/26 04:37:32;;;;;;;12.60;4.05;;;6.80;83.10;;;;;;5048608;28;20033;-64
2022/04/26 04:39:57;;;;;;;10.02;4.13;;;6.90;83.10;;;;;;5049021;28;20043;-64
2022/04/26 04:42:23;;;;;;;15.27;5.25;;;6.90;83.00;;;;;;5046679;28;20845;-65
2022/04/26 04:44:49;;;;;;;11.32;4.97;;;6.90;83.10;;;;;;5046904;28;20051;-64
2022/04/26 04:47:15;;;;;;;13.68;6.00;;;6.90;83.10;;;;;;5048730;28;20055;-64
2022/04/26 04:49:41;;;;;;;10.95;4.25;;;6.80;83.20;;;;;;5048482;28;20037;-64
2022/04/26 04:52:06;;;;;;;17.75;4.80;;;6.80;83.20;;;;;;5048675;28;20084;-65
2022/04/26 04:54:32;;;;;;;12.50;5.35;;;6.90;83.30;;;;;;5048565;28;20071;-64
2022/04/26 04:56:58;;;;;;;14.77;4.75;;;6.90;83.40;;;;;;5046686;28;20455;-64
2022/04/26 04:59:24;;;;;;;14.30;5.00;;;6.80;83.70;;;;;;5048545;28;20044;-64
2022/04/26 05:01:49;;;;;;;23.02;5.30;;;6.80;83.70;;;;;;5048452;28;20474;-64
2022/04/26 05:04:15;;;;;;;13.23;4.75;;;6.90;83.60;;;;;;5048059;28;20397;-64
2022/04/26 05:06:41;;;;;;;11.90;4.85;;;6.90;83.50;;;;;;5047984;28;20041;-65
2022/04/26 05:09:06;;;;;;;14.02;5.00;;;6.90;83.60;;;;;;5048438;28;20045;-64
2022/04/26 05:11:32;;;;;;;6.80;4.25;;;6.90;83.80;;;;;;5049036;28;20148;-65
2022/04/26 05:13:58;;;;;;;14.60;4.20;;;6.90;83.90;;;;;;5048806;28;20053;-62
2022/04/26 05:16:23;;;;;;;11.43;4.32;;;6.90;84.00;;;;;;5048811;28;20052;-62
2022/04/26 05:18:49;;;;;;;13.05;5.40;;;6.90;84.10;;;;;;5048683;28;20041;-65
2022/04/26 05:21:15;;;;;;;13.98;4.10;;;6.90;84.00;;;;;;5050001;28;20123;-63
2022/04/26 05:26:25;;;;;;;7.68;4.15;;;6.90;84.00;;;;;;5052919;28;20049;-66
2022/04/26 05:28:51;;;;;;;9.30;4.32;;;6.80;83.90;;;;;;5052814;28;20102;-63
2022/04/26 05:31:17;;;;;;;9.68;4.53;;;6.80;83.90;;;;;;5050848;28;20056;-62
2022/04/26 05:33:42;;;;;;;13.10;4.95;;;6.90;83.90;;;;;;5052655;28;20045;-63
2022/04/26 05:36:08;;;;;;;20.45;5.85;;;6.90;83.90;;;;;;5052961;28;20045;-63
2022/04/26 05:38:34;;;;;;;16.83;5.03;;;6.90;83.80;;;;;;5052704;28;20417;-62
2022/04/26 05:41:00;;;;;;;15.95;5.05;;;6.90;83.70;;;;;;5052221;28;20132;-63
2022/04/26 05:43:26;;;;;;;12.65;4.90;;;6.90;83.80;;;;;;5051869;28;20049;-63
2022/04/26 05:45:52;;;;;;;11.88;5.25;;;7.00;83.70;;;;;;5051025;28;20037;-63
2022/04/26 05:48:18;;;;;;;13.80;5.25;;;7.00;83.80;;;;;;5051227;28;20049;-63
2022/04/26 05:50:44;;;;;;;14.23;6.50;;;7.00;83.70;;;;;;5051545;28;20064;-62
2022/04/26 05:53:10;;;;;;;13.13;4.65;;;7.10;83.70;;;;;;5052359;28;20045;-63
2022/04/26 05:55:36;;;;;;;13.40;5.50;;;7.10;83.60;;;;;;5051285;28;20041;-63
2022/04/26 05:58:02;;;;;;;10.18;4.32;;;7.20;83.50;;;;;;5051605;28;20094;-63
2022/04/26 06:00:28;;;;;;;14.77;4.75;;;7.20;83.50;;;;;;5051750;28;20044;-64
2022/04/26 06:02:54;;;;;;;9.27;4.07;;;7.30;83.60;;;;;;5051850;28;20048;-63
2022/04/26 06:05:20;;;;;;;11.98;4.93;;;7.30;83.60;;;;;;5052010;28;20125;-65
2022/04/26 06:07:46;;;;;;;12.73;5.55;;;7.30;83.60;;;;;;5050454;28;20493;-63
2022/04/26 06:10:12;;;;;;;14.05;4.43;;;7.40;83.60;;;;;;5051682;28;20055;-63
2022/04/26 06:12:39;;;;;;;9.60;4.40;;;7.40;83.60;;;;;;5050624;28;20191;-64
2022/04/26 06:15:05;;;;;;;13.38;4.90;;;7.50;83.60;;;;;;5051376;28;20164;-62
2022/04/26 06:17:32;;;;;;;12.13;4.20;;;7.60;83.30;;;;;;5035225;28;20123;-63
2022/04/26 06:19:58;;;;;;;15.55;5.45;;;7.60;83.30;;;;;;5051545;28;20045;-64
2022/04/26 06:22:24;;;;;;;13.73;5.68;;;7.60;83.30;;;;;;5050495;28;20048;-64
2022/04/26 06:24:51;;;;;;;14.80;5.38;;;7.60;83.10;;;;;;5051650;28;20037;-64
2022/04/26 06:27:17;;;;;;;14.95;5.50;;;7.70;83.10;;;;;;5050618;28;20053;-63
2022/04/26 06:29:43;;;;;;;13.00;5.10;;;7.80;83.20;;;;;;5049570;28;20156;-63
2022/04/26 06:32:08;;;;;;;12.60;5.53;;;7.90;83.00;;;;;;5051059;28;20099;-64
2022/04/26 06:34:34;;;;;;;11.40;4.97;;;8.00;82.70;;;;;;5050378;28;20083;-63
2022/04/26 06:36:59;;;;;;;10.65;4.63;;;8.10;82.80;;;;;;5050968;28;20500;-63
2022/04/26 06:39:25;;;;;;;12.93;4.85;;;8.20;82.50;;;;;;5051119;28;20041;-64
2022/04/26 06:41:51;;;;;;;13.52;5.30;;;8.20;82.30;;;;;;5050347;28;20037;-64
2022/04/26 06:44:17;;;;;;;13.73;5.13;;;8.30;82.10;;;;;;5050780;28;20041;-63
2022/04/26 06:46:43;;;;;;;10.85;5.13;;;8.40;81.70;;;;;;5051022;28;20125;-64
2022/04/26 06:49:08;;;;;;;10.00;4.00;;;8.40;81.10;;;;;;5050013;28;20037;-64
2022/04/26 06:51:37;;;;;;;7.28;3.55;;;8.50;80.70;;;;;;5050069;28;20033;-64
2022/04/26 06:54:04;;;;;;;10.20;4.30;;;8.60;80.10;;;;;;5049941;28;20048;-64
2022/04/26 06:56:30;;;;;;;16.85;5.10;;;8.60;80.00;;;;;;5050696;28;20056;-64
2022/04/26 06:58:55;;;;;;;9.93;4.25;;;8.60;79.40;;;;;;5050468;28;20037;-64
2022/04/26 07:01:21;;;;;;;8.68;3.72;;;8.60;79.00;;;;;;5050054;28;20124;-64
2022/04/26 07:03:46;;;;;;;13.85;3.65;;;8.70;78.40;;;;;;5049261;28;20048;-64
2022/04/26 07:06:12;;;;;;;13.80;3.53;;;8.70;78.10;;;;;;5050784;28;20041;-64
2022/04/26 07:08:38;;;;;;;13.05;5.07;;;8.70;78.00;;;;;;5050621;28;20037;-65
2022/04/26 07:11:03;;;;;;;9.82;3.85;;;8.70;77.80;;;;;;5050994;28;20409;-63
2022/04/26 07:13:29;;;;;;;12.10;3.17;;;8.70;77.30;;;;;;5049435;28;20136;-64
2022/04/26 07:15:55;;;;;;;13.23;4.05;;;8.70;76.50;;;;;;5050869;28;20558;-64
2022/04/26 07:18:20;;;;;;;7.60;2.70;;;8.70;76.50;;;;;;5051025;28;20764;-64
2022/04/26 07:20:46;;;;;;;15.13;3.15;;;8.80;76.10;;;;;;5050722;28;20045;-65
2022/04/26 07:23:12;;;;;;;9.70;3.90;;;8.80;76.50;;;;;;5050462;28;20044;-63
2022/04/26 07:25:41;;;;;;;10.55;3.70;;;8.90;76.30;;;;;;5050575;28;20114;-64
2022/04/26 07:28:07;;;;;;;7.68;3.15;;;9.00;76.00;;;;;;5050449;28;20325;-63
2022/04/26 07:30:35;;;;;;;9.45;3.95;;;9.10;75.80;;;;;;5050150;28;20041;-63
2022/04/26 07:35:49;;;;;;;9.25;3.35;;;9.40;74.70;;;;;;5033030;28;20054;-64
2022/04/26 07:38:15;;;;;;;7.05;3.05;;;9.40;74.50;;;;;;5050413;28;20379;-63
2022/04/26 07:40:42;;;;;;;7.80;2.53;;;9.50;74.00;;;;;;5050300;28;20090;-63
2022/04/26 07:43:08;;;;;;;10.80;3.08;;;9.60;74.10;;;;;;5049638;28;20044;-63
2022/04/26 07:45:40;;;;;;;9.65;2.65;;;9.70;73.90;;;;;;5047892;28;20041;-63
2022/04/26 07:48:07;;;;;;;5.10;2.55;;;9.80;73.50;;;;;;5049995;28;20056;-65
2022/04/26 07:50:34;;;;;;;16.52;3.58;;;9.90;73.00;;;;;;5032180;28;20055;-65
2022/04/26 07:53:00;;;;;;;9.25;2.30;;;9.90;71.90;;;;;;5049827;28;20087;-63
2022/04/26 07:55:27;;;;;;;9.15;2.53;;;9.90;71.70;;;;;;5048377;28;20087;-64
2022/04/26 07:57:52;;;;;;;7.35;2.60;;;9.90;71.90;;;;;;5050122;28;20049;-63
2022/04/26 08:00:18;;;;;;;7.50;2.90;;;9.80;71.70;;;;;;5031062;28;20099;-65
2022/04/26 08:02:44;;;;;;;6.65;2.53;;;9.80;71.80;;;;;;5048489;28;20033;-64
2022/04/26 08:05:09;;;;;;;10.27;3.22;;;9.80;72.20;;;;;;5049359;28;20075;-64
2022/04/26 08:07:41;;;;;;;8.10;3.55;;;9.90;72.20;;;;;;5143090;27;20132;-63
2022/04/26 08:10:12;;;;;;;8.85;3.58;;;10.00;71.70;;;;;;5126702;27;20051;-63
2022/04/26 08:12:39;;;;;;;7.63;3.17;;;10.10;71.40;;;;;;5126554;27;20126;-63
2022/04/26 08:15:05;;;;;;;9.32;2.50;;;10.00;70.70;;;;;;5127442;27;20043;-63
2022/04/26 08:17:31;;;;;;;7.20;2.58;;;10.00;70.30;;;;;;5127200;27;20176;-63
2022/04/26 08:19:57;;;;;;;8.45;3.00;;;10.10;70.00;;;;;;5126776;27;20122;-64
2022/04/26 08:22:22;;;;;;;9.65;3.60;;;10.10;69.50;;;;;;5126672;27;20137;-64
2022/04/26 08:27:33;;;;;;;11.60;2.85;;;10.30;67.00;;;;;;5109006;27;20381;-63
2022/04/26 08:30:02;;;;;;;11.77;2.42;;;10.30;67.30;;;;;;5109760;28;20039;-64
2022/04/26 08:32:41;;;;;;;6.43;2.70;;;10.30;67.20;;;;;;5126949;27;20057;-64
2022/04/26 08:35:08;;;;;;;5.10;2.92;;;10.40;66.30;;;;;;5126928;27;20035;-64
2022/04/26 08:37:34;;;;;;;5.53;2.05;;;10.40;66.90;;;;;;5112536;27;20563;-63
2022/04/26 08:40:01;;;;;;;6.47;3.17;;;10.40;66.50;;;;;;5112029;27;20079;-64
2022/04/26 08:42:36;;;;;;;6.30;2.63;;;10.40;66.00;;;;;;5114556;27;20031;-63
2022/04/26 08:45:05;;;;;;;7.80;2.20;;;10.50;66.50;;;;;;5125555;27;20035;-64
2022/04/26 08:52:59;;;;;;;4.00;2.08;;;10.60;65.20;;;;;;5104798;28;20488;-63
2022/04/26 08:55:25;;;;;;;6.55;2.40;;;10.60;65.20;;;;;;5107566;28;20050;-63
2022/04/26 08:57:51;;;;;;;5.95;2.13;;;10.80;65.00;;;;;;5113399;27;20058;-63
2022/04/26 09:00:17;;;;;;;5.95;2.33;;;10.80;64.20;;;;;;5112423;27;20039;-63
2022/04/26 09:02:43;;;;;;;11.30;2.72;;;10.90;63.10;;;;;;5126417;27;20042;-63
2022/04/26 09:05:10;;;;;;;8.43;2.45;;;11.00;63.60;;;;;;5118822;27;20043;-63
2022/04/26 09:07:40;;;;;;;9.02;2.60;;;11.10;64.10;;;;;;5109193;28;20058;-63
2022/04/26 09:10:11;;;;;;;8.32;2.83;;;11.10;63.20;;;;;;5113531;27;20043;-67
2022/04/26 09:13:09;;;;;;;6.65;2.10;;;11.20;63.40;;;;;;5104252;28;20046;-67
2022/04/26 09:15:38;;;;;;;6.22;2.33;;;11.30;62.30;;;;;;5103415;28;20043;-67
2022/04/26 09:18:27;;;;;;;8.50;2.28;;;11.20;62.30;;;;;;5097742;28;20093;-67
2022/04/26 09:20:55;;;;;;;4.60;1.77;;;11.20;61.70;;;;;;5091565;28;20123;-67
2022/04/26 09:23:29;;;;;;;8.98;2.15;;;11.20;61.50;;;;;;5091997;28;20050;-67
2022/04/26 09:26:12;;;;;;;10.57;2.25;;;11.10;61.80;;;;;;5090573;28;20051;-67
2022/04/26 09:28:50;;;;;;;14.77;2.30;;;11.20;61.70;;;;;;5091366;28;20162;-66
2022/04/26 09:31:39;;;;;;;6.60;2.30;;;11.40;60.20;;;;;;5091777;28;20066;-67
2022/04/26 09:34:13;;;;;;;6.45;1.60;;;11.40;59.90;;;;;;5091772;28;20039;-67
2022/04/26 09:36:46;;;;;;;6.57;1.98;;;11.40;60.00;;;;;;5091545;28;20054;-66
2022/04/26 09:39:21;;;;;;;5.47;1.92;;;11.50;59.90;;;;;;5090318;28;20052;-67
2022/04/26 09:41:51;;;;;;;2.83;1.45;;;11.60;59.50;;;;;;5091356;28;20059;-67
2022/04/26 09:44:17;;;;;;;4.55;1.65;;;11.60;59.20;;;;;;5091497;28;20173;-67
2022/04/26 09:46:43;;;;;;;4.30;1.83;;;11.60;58.70;;;;;;5091656;28;20044;-66
2022/04/26 09:49:14;;;;;;;7.72;3.63;;;11.70;58.10;;;;;;5091643;28;20047;-67
2022/04/26 09:51:41;;;;;;;6.88;2.45;;;11.90;57.60;;;;;;5090927;28;20123;-67
2022/04/26 09:54:07;;;;;;;5.10;1.70;;;11.90;58.10;;;;;;5091420;28;20036;-67
2022/04/26 09:56:34;;;;;;;7.30;1.75;;;12.00;57.60;;;;;;5091252;28;20071;-67
2022/04/26 09:59:02;;;;;;;4.25;1.73;;;11.80;56.60;;;;;;5091346;28;20047;-67
2022/04/26 10:01:36;;;;;;;5.32;1.85;;;11.70;57.80;;;;;;5091271;28;20062;-67
2022/04/26 10:04:04;;;;;;;5.15;2.05;;;11.70;58.20;;;;;;5091326;28;20044;-67
2022/04/26 10:06:38;;;;;;;5.35;2.10;;;11.70;58.10;;;;;;5089720;28;20060;-67
2022/04/26 10:09:06;;;;;;;6.13;1.83;;;11.70;58.30;;;;;;5089657;28;20095;-67
2022/04/26 10:11:32;;;;;;;5.18;1.83;;;11.70;58.20;;;;;;5091053;28;20044;-67
2022/04/26 10:13:59;;;;;;;5.45;3.08;;;11.70;58.40;;;;;;5090672;28;20100;-66
2022/04/26 10:16:26;;;;;;;5.45;2.65;;;11.70;57.90;;;;;;5091153;28;20052;-67
2022/04/26 10:19:11;;;;;;;9.40;2.38;;;11.80;58.10;;;;;;5091113;28;20106;-66
2022/04/26 10:21:38;;;;;;;5.60;2.08;;;11.90;58.20;;;;;;5089821;28;20088;-67
2022/04/26 10:24:25;;;;;;;8.27;2.13;;;12.10;57.70;;;;;;5090732;28;20097;-67
2022/04/26 10:26:52;;;;;;;4.10;1.63;;;12.20;57.00;;;;;;5090334;28;20126;-67
2022/04/26 10:29:23;;;;;;;6.30;2.25;;;12.20;56.40;;;;;;5089811;28;20081;-67
2022/04/26 10:31:55;;;;;;;6.60;1.98;;;12.30;56.50;;;;;;5090534;28;20052;-67
2022/04/26 10:34:20;;;;;;;7.75;1.98;;;12.40;56.50;;;;;;5090566;28;20040;-67
2022/04/26 10:36:50;;;;;;;6.60;1.77;;;12.50;56.60;;;;;;5090585;28;20051;-67
2022/04/26 10:39:30;;;;;;;8.18;2.58;;;12.50;56.70;;;;;;5090187;28;20036;-67
2022/04/26 10:41:57;;;;;;;3.97;1.85;;;12.60;56.50;;;;;;5090354;28;20078;-66
2022/04/26 10:44:26;;;;;;;7.15;2.05;;;12.50;55.50;;;;;;5090332;28;20465;-67
2022/04/26 10:47:03;;;;;;;6.40;2.00;;;12.30;56.50;;;;;;5089260;28;20044;-67
2022/04/26 10:49:32;;;;;;;4.63;2.40;;;12.30;57.10;;;;;;5090516;28;20051;-67
2022/04/26 10:52:26;;;;;;;6.70;2.47;;;12.40;56.70;;;;;;5090093;28;20040;-67
2022/04/26 10:54:55;;;;;;;6.03;1.90;;;12.60;55.90;;;;;;5090168;28;20067;-69
2022/04/26 10:57:28;;;;;;;4.97;1.52;;;12.70;55.90;;;;;;5102654;28;20050;-69
2022/04/26 10:59:59;;;;;;;5.60;1.50;;;12.80;54.80;;;;;;5107685;28;20040;-67
2022/04/26 11:02:27;;;;;;;5.23;2.03;;;12.70;55.10;;;;;;5096835;28;20104;-67
2022/04/26 11:04:57;;;;;;;4.03;2.15;;;12.70;55.40;;;;;;5092486;28;20079;-66
2022/04/26 11:07:25;;;;;;;4.90;1.92;;;12.80;55.20;;;;;;5104758;28;20048;-67
2022/04/26 11:09:53;;;;;;;3.85;1.73;;;12.80;55.00;;;;;;5109580;28;20104;-67
2022/04/26 11:12:23;;;;;;;7.80;2.25;;;12.80;54.40;;;;;;5105275;28;20395;-67
2022/04/26 11:14:52;;;;;;;8.05;2.17;;;12.80;55.00;;;;;;5098212;28;20118;-66
2022/04/26 11:17:19;;;;;;;6.93;3.72;;;13.00;54.50;;;;;;5107382;28;20055;-67
2022/04/26 11:19:50;;;;;;;7.55;1.70;;;13.10;53.30;;;;;;5101653;28;20420;-67
2022/04/26 11:22:16;;;;;;;8.63;1.90;;;12.90;53.70;;;;;;5103470;28;20040;-67
2022/04/26 11:30:30;;;;;;;3.65;1.80;;;13.00;54.60;;;;;;5109198;28;20052;-67
2022/04/26 11:33:01;;;;;;;8.00;2.58;;;12.80;54.60;;;;;;5109378;28;20123;-66
2022/04/26 11:35:28;;;;;;;5.20;1.77;;;12.80;54.80;;;;;;5099419;28;20048;-67
2022/04/26 11:37:56;;;;;;;3.67;1.48;;;12.70;54.50;;;;;;5109179;28;20093;-67
2022/04/26 11:40:25;;;;;;;5.13;2.40;;;12.70;54.80;;;;;;5107551;28;20048;-67
2022/04/26 11:42:51;;;;;;;3.03;1.63;;;12.80;55.00;;;;;;5092322;28;20051;-68
2022/04/26 11:45:18;;;;;;;6.22;2.40;;;12.90;54.60;;;;;;5087066;28;20051;-68
2022/04/26 11:47:50;;;;;;;4.60;1.80;;;12.90;54.20;;;;;;5091818;28;20085;-68
2022/04/26 11:50:19;;;;;;;5.32;1.70;;;12.70;54.00;;;;;;5109258;28;20389;-68
2022/04/26 11:52:46;;;;;;;4.55;1.85;;;12.60;54.70;;;;;;5108843;28;20035;-68
2022/04/26 11:55:34;;;;;;;4.72;1.98;;;12.60;55.00;;;;;;5109249;28;20191;-69
2022/04/26 11:58:15;;;;;;;6.72;1.88;;;12.80;54.20;;;;;;5104908;28;20036;-67
2022/04/26 12:00:55;;;;;;;6.30;1.67;;;12.60;53.50;;;;;;5087613;28;20048;-68
2022/04/26 12:03:24;;;;;;;5.50;2.20;;;12.50;54.60;;;;;;5088948;28;20044;-68
2022/04/26 12:05:57;;;;;;;6.45;1.65;;;12.60;55.50;;;;;;5102492;28;20403;-68
2022/04/26 12:08:23;;;;;;;7.00;2.13;;;12.70;54.80;;;;;;5108580;28;20047;-68
2022/04/26 12:10:48;;;;;;;4.28;1.80;;;12.70;54.70;;;;;;5102136;28;20052;-68
2022/04/26 12:13:16;;;;;;;4.40;1.48;;;12.60;55.00;;;;;;5104534;28;20050;-68
2022/04/26 12:15:42;;;;;;;2.95;1.40;;;12.50;54.90;;;;;;5107917;28;20123;-68
2022/04/26 12:18:14;;;;;;;6.03;1.35;;;12.50;54.00;;;;;;5094961;28;20125;-67
2022/04/26 12:21:02;;;;;;;3.90;1.55;;;12.70;54.40;;;;;;5094041;28;20132;-67
2022/04/26 12:23:30;;;;;;;4.63;1.83;;;13.10;53.80;;;;;;5099325;28;20039;-68
2022/04/26 12:26:05;;;;;;;4.82;1.80;;;13.20;53.90;;;;;;5103509;28;20507;-67
2022/04/26 12:28:31;;;;;;;4.40;1.60;;;13.20;53.60;;;;;;5108450;28;20054;-68
2022/04/26 12:30:57;;;;;;;4.75;1.80;;;13.20;53.30;;;;;;5108939;28;20070;-68
2022/04/26 12:33:32;;;;;;;5.00;1.60;;;13.00;53.20;;;;;;5108676;28;20481;-68
2022/04/26 12:36:03;;;;;;;2.70;1.60;;;12.90;53.90;;;;;;5108585;28;20039;-68
2022/04/26 12:38:30;;;;;;;4.25;1.52;;;12.80;54.00;;;;;;5108912;28;20059;-69
2022/04/26 12:41:06;;;;;;;3.97;1.75;;;12.80;53.90;;;;;;5109026;28;20118;-68
2022/04/26 12:43:32;;;;;;;6.93;2.05;;;12.80;54.00;;;;;;5108638;28;20043;-70
2022/04/26 12:46:03;;;;;;;5.57;1.70;;;12.80;54.30;;;;;;5108941;28;20471;-69
2022/04/26 12:51:24;;;;;;;5.78;2.00;;;13.20;53.80;;;;;;5107547;28;20048;-68
2022/04/26 12:53:52;;;;;;;5.53;1.58;;;13.40;53.00;;;;;;5111347;28;20101;-69
2022/04/26 12:56:19;;;;;;;5.85;1.75;;;13.40;53.20;;;;;;5112781;27;20139;-68
2022/04/26 12:58:47;;;;;;;5.43;1.73;;;13.40;53.00;;;;;;5112446;28;20097;-68
2022/04/26 13:01:14;;;;;;;5.47;1.38;;;13.30;53.10;;;;;;5112102;28;20430;-67
2022/04/26 13:03:41;;;;;;;6.38;1.83;;;13.30;52.90;;;;;;5112316;27;20043;-68
2022/04/26 13:06:12;;;;;;;4.72;1.80;;;13.30;52.40;;;;;;5112079;28;20060;-67
2022/04/26 13:08:40;;;;;;;5.30;1.53;;;13.30;52.10;;;;;;5112514;28;20049;-68
2022/04/26 13:11:07;;;;;;;4.05;1.65;;;13.40;52.20;;;;;;5112381;28;20044;-68
2022/04/26 13:13:35;;;;;;;9.90;2.10;;;13.60;52.20;;;;;;5111736;28;20570;-67
2022/04/26 13:16:01;;;;;;;6.50;1.58;;;13.80;52.00;;;;;;5112369;28;20080;-68
2022/04/26 13:18:28;;;;;;;6.20;1.75;;;13.80;51.60;;;;;;5111969;28;20488;-67
2022/04/26 13:20:55;;;;;;;3.67;1.38;;;13.60;50.90;;;;;;5112231;28;20051;-68
2022/04/26 13:23:21;;;;;;;3.58;1.70;;;13.60;51.60;;;;;;5111673;28;20051;-68
2022/04/26 13:25:47;;;;;;;5.13;1.98;;;13.50;51.20;;;;;;5111766;28;20038;-68
2022/04/26 13:28:13;;;;;;;5.63;1.60;;;13.70;51.50;;;;;;5110892;28;20035;-68
2022/04/26 13:30:39;;;;;;;7.35;2.28;;;14.00;51.30;;;;;;5111938;28;20044;-68
2022/04/26 13:33:05;;;;;;;5.35;1.63;;;14.20;50.70;;;;;;5111745;28;20169;-67
2022/04/26 13:35:31;;;;;;;5.18;1.65;;;14.30;50.50;;;;;;5112164;28;20134;-67
2022/04/26 13:38:01;;;;;;;6.75;2.25;;;14.40;49.60;;;;;;5111610;28;20043;-68
2022/04/26 13:40:27;;;;;;;5.50;1.58;;;14.40;49.50;;;;;;5111816;28;20536;-68
2022/04/26 13:42:53;;;;;;;5.03;1.85;;;14.50;48.70;;;;;;5111821;28;20047;-67
2022/04/26 13:45:20;;;;;;;4.53;1.63;;;14.60;49.70;;;;;;5111132;28;20046;-67
2022/04/26 13:47:46;;;;;;;4.00;1.48;;;14.70;48.40;;;;;;5111647;28;20047;-67
2022/04/26 13:50:12;;;;;;;5.43;1.83;;;14.60;47.70;;;;;;5111543;28;20051;-67
2022/04/26 13:52:40;;;;;;;6.10;1.73;;;14.40;48.10;;;;;;5111456;28;20411;-67
2022/04/26 13:55:07;;;;;;;4.57;1.70;;;14.10;48.60;;;;;;5111269;28;20047;-67
2022/04/26 13:57:33;;;;;;;6.10;1.92;;;13.90;49.40;;;;;;5111626;28;20185;-67
2022/04/26 13:59:59;;;;;;;5.57;1.63;;;13.80;49.80;;;;;;5111730;28;20396;-67
2022/04/26 14:02:25;;;;;;;4.95;1.80;;;13.70;49.90;;;;;;5111384;28;20051;-67
2022/04/26 14:04:51;;;;;;;4.97;1.98;;;13.70;49.70;;;;;;5109605;28;20047;-67
2022/04/26 14:07:17;;;;;;;7.95;2.47;;;13.60;49.50;;;;;;5110872;28;20056;-67
2022/04/26 14:09:43;;;;;;;4.45;1.73;;;13.60;49.20;;;;;;5111099;28;20055;-67
2022/04/26 14:12:11;;;;;;;7.55;1.40;;;13.60;48.50;;;;;;5110968;27;20085;-67
2022/04/26 14:22:52;;;;;;;7.63;1.95;;;13.30;47.80;;;;;;5111036;28;20415;-67
2022/04/26 14:25:17;;;;;;;7.18;2.13;;;13.60;49.80;;;;;;5094598;28;20043;-66
2022/04/26 14:27:47;;;;;;;2.72;1.25;;;13.80;50.20;;;;;;5095355;28;20404;-67
2022/04/26 14:30:14;;;;;;;4.32;1.65;;;13.90;49.00;;;;;;5102161;28;20104;-67
2022/04/26 14:32:39;;;;;;;6.18;2.38;;;13.80;48.10;;;;;;5103793;28;20122;-66
2022/04/26 14:35:06;;;;;;;6.60;2.00;;;13.80;49.60;;;;;;5100308;28;20461;-66
2022/04/26 14:37:33;;;;;;;4.03;1.75;;;13.80;49.70;;;;;;5109870;28;20408;-66
2022/04/26 14:39:59;;;;;;;4.20;1.55;;;13.60;49.80;;;;;;5105572;28;20537;-67
2022/04/26 14:42:25;;;;;;;6.25;2.10;;;13.60;50.30;;;;;;5103004;28;20039;-67
2022/04/26 14:44:50;;;;;;;10.27;2.65;;;13.60;50.80;;;;;;5108452;28;20050;-67
2022/04/26 14:47:16;;;;;;;3.92;1.48;;;13.80;50.20;;;;;;5109950;28;20043;-68
2022/04/26 14:49:41;;;;;;;4.97;1.60;;;14.00;49.90;;;;;;5109904;28;20078;-67
2022/04/26 14:52:08;;;;;;;4.05;1.70;;;14.20;50.00;;;;;;5101468;28;20448;-68
2022/04/26 14:54:34;;;;;;;4.22;1.80;;;14.30;49.50;;;;;;5109374;27;20048;-67
2022/04/26 14:57:01;;;;;;;3.70;1.48;;;14.40;49.30;;;;;;5099885;28;20124;-67
2022/04/26 14:59:26;;;;;;;5.63;1.70;;;14.50;48.70;;;;;;5088309;28;20617;-67
2022/04/26 15:01:53;;;;;;;6.80;1.60;;;14.60;48.20;;;;;;5089851;28;20036;-68
2022/04/26 15:04:20;;;;;;;8.93;1.65;;;14.60;48.60;;;;;;5089757;28;20047;-68
2022/04/26 15:06:47;;;;;;;8.75;2.25;;;14.80;48.40;;;;;;5091394;28;20084;-68
2022/04/26 15:17:27;;;;;;;7.50;1.75;;;14.90;46.10;;;;;;5089197;28;20501;-66
2022/04/26 15:19:54;;;;;;;8.63;1.73;;;14.50;46.30;;;;;;5089668;28;20051;-66
2022/04/26 15:22:19;;;;;;;5.40;2.13;;;14.30;47.40;;;;;;5089324;28;20113;-65
2022/04/26 15:24:49;;;;;;;5.68;1.58;;;14.10;47.80;;;;;;5094639;28;20036;-69
2022/04/26 15:27:18;;;;;;;5.68;2.00;;;13.90;48.60;;;;;;5088436;28;20178;-69
2022/04/26 15:29:45;;;;;;;2.97;1.45;;;13.70;49.20;;;;;;5089303;28;20440;-68
2022/04/26 15:32:11;;;;;;;4.05;1.70;;;13.70;49.30;;;;;;5105897;28;20043;-67
2022/04/26 15:34:37;;;;;;;5.15;1.40;;;13.80;48.60;;;;;;5104934;28;20040;-66
2022/04/26 15:37:03;;;;;;;5.00;1.33;;;14.00;48.70;;;;;;5088732;28;20043;-67
2022/04/26 15:39:29;;;;;;;6.72;1.85;;;14.20;46.90;;;;;;5088904;28;20048;-67
2022/04/26 15:41:55;;;;;;;6.80;1.80;;;14.40;46.30;;;;;;5089143;28;20040;-68
2022/04/26 15:44:21;;;;;;;4.57;1.42;;;14.50;45.20;;;;;;5089010;28;20047;-67
2022/04/26 15:46:48;;;;;;;5.05;1.30;;;14.70;44.70;;;;;;5088626;28;20048;-67
2022/04/26 15:49:14;;;;;;;6.15;1.50;;;14.80;44.30;;;;;;5088577;28;20044;-68
2022/04/26 15:51:42;;;;;;;6.80;1.50;;;14.90;44.60;;;;;;5089090;28;20047;-67
2022/04/26 15:54:07;;;;;;;4.43;1.50;;;15.10;44.50;;;;;;5089250;28;20093;-65
2022/04/26 15:56:33;;;;;;;6.10;2.15;;;15.30;44.00;;;;;;5089184;28;20475;-67
2022/04/26 15:59:01;;;;;;;6.05;1.70;;;15.40;43.40;;;;;;5089019;28;20385;-68
2022/04/26 16:01:26;;;;;;;3.55;1.45;;;15.40;43.10;;;;;;5089195;28;20093;-68
2022/04/26 16:03:53;;;;;;;4.55;1.50;;;15.40;43.20;;;;;;5088327;28;20052;-67
2022/04/26 16:06:19;;;;;;;5.22;1.90;;;15.20;43.10;;;;;;5088517;28;20064;-67
2022/04/26 16:08:44;;;;;;;3.75;1.92;;;15.00;43.40;;;;;;5088619;28;20052;-67
2022/04/26 16:22:08;;;;;;;7.32;1.85;;;13.90;45.30;;;;;;5088425;28;20091;-67
2022/04/26 16:24:38;;;;;;;4.20;1.60;;;13.60;46.60;;;;;;5088804;28;20076;-67
2022/04/26 16:27:05;;;;;;;4.53;1.88;;;13.40;47.50;;;;;;5087917;28;20400;-67
2022/04/26 16:29:31;;;;;;;6.85;1.25;;;13.20;48.30;;;;;;5092642;28;20039;-67
2022/04/26 16:31:57;;;;;;;5.30;1.90;;;13.10;48.70;;;;;;5091441;28;20484;-67
2022/04/26 16:34:22;;;;;;;6.38;1.42;;;13.10;49.00;;;;;;5091394;28;20067;-67
2022/04/26 16:36:48;;;;;;;4.60;1.60;;;13.00;49.20;;;;;;5091903;28;20040;-67
2022/04/26 16:39:14;;;;;;;5.32;2.00;;;13.00;49.30;;;;;;5091337;28;20110;-67
2022/04/26 16:41:40;;;;;;;5.93;1.67;;;13.00;49.40;;;;;;5092590;28;20075;-67
2022/04/26 16:44:07;;;;;;;4.35;1.48;;;12.90;49.40;;;;;;5092374;28;20079;-67
2022/04/26 16:46:33;;;;;;;3.42;1.40;;;13.10;49.60;;;;;;5092508;28;20122;-67
2022/04/26 16:49:01;;;;;;;6.85;1.55;;;13.20;49.30;;;;;;5091859;28;20123;-67
2022/04/26 16:51:30;;;;;;;4.78;1.73;;;13.40;49.00;;;;;;5091993;28;20044;-67
2022/04/26 16:53:56;;;;;;;6.07;1.88;;;13.40;48.70;;;;;;5092273;28;20119;-67
2022/04/26 16:56:21;;;;;;;4.05;1.50;;;13.60;48.30;;;;;;5074378;28;20050;-67
2022/04/26 16:58:47;;;;;;;5.30;1.58;;;13.60;48.20;;;;;;5091598;28;20044;-67
2022/04/26 17:01:13;;;;;;;6.03;1.52;;;13.80;48.40;;;;;;5092313;28;20438;-67
2022/04/26 17:03:38;;;;;;;7.18;1.83;;;14.00;48.10;;;;;;5092081;28;20450;-68
2022/04/26 17:06:04;;;;;;;5.90;1.65;;;14.30;47.80;;;;;;5091975;28;20052;-67
2022/04/26 17:08:30;;;;;;;6.63;1.70;;;14.50;47.30;;;;;;5092050;28;20044;-67
2022/04/26 17:11:41;;;;;;;5.50;1.60;;;14.60;48.00;;;;;;5090865;28;20054;-67
2022/04/26 17:13:42;;;;;;;3.67;1.83;;;14.40;49.40;;;;;;5092079;28;20055;-68
2022/04/26 17:16:08;;;;;;;6.60;1.70;;;14.30;49.90;;;;;;5092323;28;20048;-67